Tecumseh, Michigan
Current Conditions -  °F | °C
As of 3:02 AM on Saturday 25 Oct 2014 (Local Time) from KADG Reporting Station
Haze Haze  
Wind Chill: 45°   Ceiling: Unl
Heat Index: 45°   Visibility: 1.7mi
Dew Point: 44°   Wind: 3mph
Humidity: 97%   Direction: 260°W
Pressure: 29.95"   Gusts: NA
Location:  42°N, 83.94°W
Report Text: KADG 250702Z AUTO 26003KT 1 3/4SM BR FEW085 07/07 A2995 RMK AO2 T00720067
Loading
Personal Weather Stations






























Interactive Weather Map
Tropical Storm Tracking
New forecast layout! Learn more

10-Day Weather Forecast

Advertisements
Track Severe Weather on mobile